Time;durP1;ratioP1;P1;durP2;ratioP2;P2;SDS_P1;SDS_P2;PMS_P1;PMS_P2;Temp;Humidity;BMP_temperature;BMP_pressure;BME280_temperature;BME280_humidity;BME280_pressure;Samples;Min_cycle;Max_cycle;Signal;HPM_P1;HPM_P2
2020/12/10 00:01:49;;;;;;;3.92;3.10;;;22.40;35.00;;;;;;5031135;28;20874;-69
2020/12/10 00:04:16;;;;;;;3.10;2.72;;;22.40;34.70;;;;;;5029871;28;20802;-71
2020/12/10 00:06:41;;;;;;;3.80;2.70;;;22.40;34.80;;;;;;5030523;28;20387;-71
2020/12/10 00:09:08;;;;;;;3.03;2.72;;;22.40;34.80;;;;;;5027546;28;20457;-71
2020/12/10 00:11:35;;;;;;;3.33;2.40;;;22.30;34.90;;;;;;5030999;28;20803;-71
2020/12/10 00:14:01;;;;;;;2.93;2.63;;;22.30;34.80;;;;;;5030830;28;20419;-72
2020/12/10 00:16:27;;;;;;;3.42;2.40;;;22.30;34.80;;;;;;5034159;28;20383;-71
2020/12/10 00:18:53;;;;;;;3.08;2.67;;;22.30;34.80;;;;;;5034263;28;20392;-70
2020/12/10 00:21:20;;;;;;;3.27;2.60;;;22.30;34.90;;;;;;5034470;28;20384;-70
2020/12/10 00:23:45;;;;;;;2.95;2.50;;;22.30;34.80;;;;;;5034499;28;20387;-70
2020/12/10 00:26:11;;;;;;;3.20;2.60;;;22.20;34.80;;;;;;5034493;28;20383;-71
2020/12/10 00:28:37;;;;;;;2.80;2.60;;;22.20;34.80;;;;;;5032675;28;20410;-71
2020/12/10 00:31:03;;;;;;;2.73;2.47;;;22.20;34.70;;;;;;5034144;28;20426;-71
2020/12/10 00:33:29;;;;;;;2.92;2.50;;;22.20;34.90;;;;;;5034036;28;20465;-71
2020/12/10 00:35:55;;;;;;;2.90;2.60;;;22.20;34.70;;;;;;5034136;28;20415;-71
2020/12/10 00:38:20;;;;;;;3.10;2.80;;;22.10;34.70;;;;;;5034150;28;20426;-72
2020/12/10 00:40:46;;;;;;;2.85;2.40;;;22.20;34.70;;;;;;5033705;28;20383;-71
2020/12/10 00:43:11;;;;;;;3.00;2.70;;;22.10;34.70;;;;;;5034094;28;20422;-68
2020/12/10 00:45:37;;;;;;;3.00;2.60;;;22.10;34.70;;;;;;5034014;28;20411;-71
2020/12/10 00:48:02;;;;;;;2.83;2.60;;;22.10;34.80;;;;;;5033954;28;20545;-69
2020/12/10 00:50:28;;;;;;;2.90;2.60;;;22.10;34.80;;;;;;5032544;28;20387;-71
2020/12/10 00:52:54;;;;;;;3.30;2.40;;;22.10;35.00;;;;;;5033771;28;20890;-71
2020/12/10 00:55:19;;;;;;;3.10;2.60;;;22.10;34.80;;;;;;5033916;28;20406;-72
2020/12/10 00:57:45;;;;;;;2.50;2.30;;;22.10;34.80;;;;;;5033774;28;20390;-71
2020/12/10 01:00:11;;;;;;;2.83;2.53;;;22.10;34.80;;;;;;5033672;28;20395;-70
2020/12/10 01:02:37;;;;;;;2.60;2.40;;;22.10;34.70;;;;;;5031989;28;20387;-71
2020/12/10 01:05:04;;;;;;;2.80;2.50;;;22.00;34.80;;;;;;5033511;28;20403;-70
2020/12/10 01:07:30;;;;;;;2.50;2.30;;;22.00;34.80;;;;;;5033643;28;20744;-72
2020/12/10 01:09:55;;;;;;;2.57;2.20;;;22.00;34.80;;;;;;5033669;28;20422;-71
2020/12/10 01:12:21;;;;;;;2.53;2.33;;;22.00;34.80;;;;;;5033620;28;20383;-71
2020/12/10 01:14:47;;;;;;;2.60;2.40;;;22.00;34.80;;;;;;5031789;28;20423;-71
2020/12/10 01:17:12;;;;;;;2.80;2.20;;;22.00;35.50;;;;;;5033406;28;20387;-71
2020/12/10 01:19:38;;;;;;;2.60;2.40;;;22.00;34.90;;;;;;5033468;28;20756;-69
2020/12/10 01:22:03;;;;;;;2.83;2.40;;;21.90;34.80;;;;;;5033369;28;20740;-71
2020/12/10 01:24:29;;;;;;;2.75;2.50;;;21.90;34.60;;;;;;5033043;28;20400;-72
2020/12/10 01:26:55;;;;;;;2.63;2.20;;;21.90;34.70;;;;;;5030865;28;20390;-71
2020/12/10 01:29:23;;;;;;;2.60;2.28;;;21.90;34.70;;;;;;5033182;28;20457;-61
2020/12/10 01:31:50;;;;;;;2.55;2.20;;;21.90;34.80;;;;;;5033161;28;20395;-71
2020/12/10 01:34:16;;;;;;;2.90;2.33;;;21.90;34.70;;;;;;5033064;28;20407;-71
2020/12/10 01:36:41;;;;;;;2.40;2.20;;;21.90;34.80;;;;;;5032515;28;20867;-70
2020/12/10 01:39:07;;;;;;;3.92;2.30;;;21.90;34.70;;;;;;5033189;28;20391;-70
2020/12/10 01:41:34;;;;;;;3.00;2.40;;;21.90;34.80;;;;;;5033068;28;20859;-71
2020/12/10 01:44:02;;;;;;;2.72;2.40;;;21.90;34.80;;;;;;5033056;28;20410;-68
2020/12/10 01:46:27;;;;;;;2.43;2.23;;;21.90;34.80;;;;;;5031377;28;20523;-71
2020/12/10 01:48:53;;;;;;;2.53;2.33;;;21.80;34.70;;;;;;5031510;28;20399;-70
2020/12/10 01:51:18;;;;;;;2.40;2.20;;;21.80;34.70;;;;;;5032821;28;20840;-72
2020/12/10 01:53:44;;;;;;;2.35;2.15;;;21.80;34.70;;;;;;5032616;28;20419;-71
2020/12/10 01:56:10;;;;;;;2.50;2.30;;;21.80;34.80;;;;;;5032595;28;20390;-71
2020/12/10 01:58:36;;;;;;;2.35;2.10;;;21.80;34.70;;;;;;5032156;28;20383;-71
2020/12/10 02:01:01;;;;;;;2.40;2.20;;;21.80;34.70;;;;;;5032558;28;20390;-71
2020/12/10 02:11:13;;;;;;;3.00;2.20;;;21.70;34.60;;;;;;4675690;23;20478;-59
2020/12/10 02:13:39;;;;;;;2.70;2.20;;;21.70;34.60;;;;;;5030356;28;20948;-59
2020/12/10 02:16:06;;;;;;;2.30;2.10;;;21.70;34.60;;;;;;5032284;28;20742;-60
2020/12/10 02:18:31;;;;;;;2.33;2.08;;;21.70;34.60;;;;;;5030998;28;20874;-61
2020/12/10 02:20:57;;;;;;;2.30;2.10;;;21.70;34.60;;;;;;5031109;28;20449;-59
2020/12/10 02:23:23;;;;;;;2.40;2.10;;;21.70;34.70;;;;;;5032136;28;20407;-59
2020/12/10 02:25:49;;;;;;;2.23;2.03;;;21.70;34.60;;;;;;5032153;28;20747;-59
2020/12/10 02:28:16;;;;;;;2.30;2.08;;;21.70;34.60;;;;;;5014447;28;20407;-59
2020/12/10 02:30:43;;;;;;;2.20;2.00;;;21.70;34.70;;;;;;5031594;28;20406;-60
2020/12/10 02:33:10;;;;;;;2.95;2.20;;;21.70;34.60;;;;;;5031893;28;20451;-59
2020/12/10 02:35:37;;;;;;;2.60;1.90;;;21.60;34.50;;;;;;5031922;28;20387;-59
2020/12/10 02:38:05;;;;;;;2.20;2.00;;;21.60;34.60;;;;;;5031803;28;20488;-59
2020/12/10 02:40:35;;;;;;;2.58;1.90;;;21.60;34.50;;;;;;5031724;28;20469;-59
2020/12/10 02:43:01;;;;;;;2.43;2.03;;;21.60;34.60;;;;;;5031442;28;20387;-59
2020/12/10 02:45:27;;;;;;;2.10;1.83;;;21.60;34.60;;;;;;5031545;28;20728;-59
2020/12/10 02:47:54;;;;;;;2.00;1.80;;;21.60;34.60;;;;;;5031753;28;20387;-59
2020/12/10 02:50:21;;;;;;;2.15;1.90;;;21.60;34.60;;;;;;5031777;28;20423;-59
2020/12/10 02:52:47;;;;;;;2.20;2.00;;;21.60;34.50;;;;;;5030180;28;20387;-59
2020/12/10 02:55:13;;;;;;;2.20;2.00;;;21.60;34.40;;;;;;5031151;28;20399;-59
2020/12/10 02:57:39;;;;;;;2.27;2.00;;;21.60;34.40;;;;;;5030753;28;20384;-59
2020/12/10 03:00:07;;;;;;;2.20;2.00;;;21.60;34.40;;;;;;5031521;28;20395;-59
2020/12/10 03:02:32;;;;;;;2.10;1.90;;;21.60;34.40;;;;;;5031203;28;20462;-59
2020/12/10 03:04:58;;;;;;;2.30;1.98;;;21.60;34.50;;;;;;5029564;28;20490;-59
2020/12/10 03:07:24;;;;;;;2.50;2.00;;;21.60;34.60;;;;;;5031610;28;20478;-59
2020/12/10 03:09:49;;;;;;;2.03;1.83;;;21.60;34.50;;;;;;5031349;28;21086;-59
2020/12/10 03:12:15;;;;;;;2.30;2.00;;;21.50;34.30;;;;;;5031159;28;20403;-59
2020/12/10 03:14:41;;;;;;;2.40;1.90;;;21.50;34.40;;;;;;5031106;28;20411;-59
2020/12/10 03:17:06;;;;;;;2.88;1.83;;;21.50;34.40;;;;;;5031431;28;20387;-59
2020/12/10 03:19:32;;;;;;;2.00;1.80;;;21.60;34.40;;;;;;5031327;28;20445;-60
2020/12/10 03:21:58;;;;;;;1.92;1.73;;;21.50;34.30;;;;;;5031415;28;20402;-59
2020/12/10 03:24:24;;;;;;;2.30;2.00;;;21.50;34.30;;;;;;5031331;28;20399;-59
2020/12/10 03:26:49;;;;;;;2.03;1.80;;;21.50;34.30;;;;;;5012896;28;20399;-59
2020/12/10 03:29:15;;;;;;;2.20;1.87;;;21.50;34.30;;;;;;5031347;28;20936;-59
2020/12/10 03:31:41;;;;;;;2.30;2.00;;;21.50;34.20;;;;;;5031088;28;20751;-60
2020/12/10 03:34:07;;;;;;;2.08;1.88;;;21.50;34.20;;;;;;5031201;28;20468;-59
2020/12/10 03:36:47;;;;;;;1.90;1.70;;;21.50;34.20;;;;;;5030817;28;20410;-59
2020/12/10 03:39:13;;;;;;;1.90;1.70;;;21.50;34.20;;;;;;5031263;28;20391;-59
2020/12/10 03:41:38;;;;;;;2.65;1.95;;;21.50;34.20;;;;;;5023006;28;20406;-59
2020/12/10 03:44:04;;;;;;;1.90;1.70;;;21.50;34.40;;;;;;5030952;28;20376;-59
2020/12/10 03:46:30;;;;;;;2.60;1.80;;;21.50;34.30;;;;;;5031103;28;20465;-59
2020/12/10 03:48:56;;;;;;;1.92;1.73;;;21.50;34.40;;;;;;5030454;28;20402;-59
2020/12/10 03:51:21;;;;;;;2.00;1.80;;;21.40;34.20;;;;;;5034056;28;20561;-59
2020/12/10 03:53:47;;;;;;;2.10;1.80;;;21.40;34.20;;;;;;5031889;28;20500;-59
2020/12/10 03:56:12;;;;;;;2.10;1.75;;;21.40;34.20;;;;;;5034038;28;20383;-59
2020/12/10 03:58:38;;;;;;;2.13;1.90;;;21.40;34.20;;;;;;5033019;28;20395;-59
2020/12/10 04:01:04;;;;;;;2.13;1.80;;;21.50;34.20;;;;;;5033149;28;20449;-60
2020/12/10 04:03:29;;;;;;;2.63;2.00;;;21.50;34.20;;;;;;5034824;28;20478;-59
2020/12/10 04:05:55;;;;;;;2.45;1.83;;;21.50;34.60;;;;;;5034753;28;20746;-59
2020/12/10 04:08:21;;;;;;;2.10;1.80;;;21.50;34.80;;;;;;5034739;28;20427;-59
2020/12/10 04:10:46;;;;;;;2.50;2.03;;;21.60;34.80;;;;;;5033973;28;20414;-59
2020/12/10 04:13:12;;;;;;;2.63;1.90;;;21.60;34.90;;;;;;5034287;28;20503;-60
2020/12/10 04:15:38;;;;;;;2.35;1.90;;;21.60;34.30;;;;;;5034151;28;21142;-61
2020/12/10 04:18:03;;;;;;;4.93;2.00;;;21.70;34.90;;;;;;5034149;28;20387;-59
2020/12/10 04:20:29;;;;;;;2.88;1.98;;;21.70;36.00;;;;;;5025388;28;20403;-58
2020/12/10 04:22:54;;;;;;;4.87;2.00;;;21.70;36.40;;;;;;5032772;28;20936;-58
2020/12/10 04:25:20;;;;;;;4.40;2.10;;;21.80;36.70;;;;;;5032765;28;20399;-59
2020/12/10 04:27:45;;;;;;;5.32;2.03;;;21.80;36.50;;;;;;5033642;28;20469;-59
2020/12/10 04:30:11;;;;;;;4.20;2.20;;;21.80;36.00;;;;;;5032408;28;20883;-59
2020/12/10 04:32:37;;;;;;;5.63;2.10;;;21.90;36.40;;;;;;5032247;28;20394;-58
2020/12/10 04:35:02;;;;;;;3.63;1.90;;;21.80;36.50;;;;;;5032970;28;20431;-58
2020/12/10 04:37:28;;;;;;;4.82;1.90;;;21.80;36.60;;;;;;5033358;28;20724;-60
2020/12/10 04:39:54;;;;;;;5.43;2.10;;;21.90;36.70;;;;;;5033493;28;20478;-59
2020/12/10 04:42:19;;;;;;;6.38;2.15;;;21.90;37.00;;;;;;5033521;28;20386;-59
2020/12/10 04:44:46;;;;;;;5.37;2.20;;;21.90;37.10;;;;;;5033154;28;20418;-59
2020/12/10 04:47:13;;;;;;;5.18;2.13;;;21.90;37.20;;;;;;5033930;28;20902;-59
2020/12/10 04:49:39;;;;;;;4.22;1.80;;;21.90;36.30;;;;;;5033875;28;20470;-59
2020/12/10 04:52:07;;;;;;;3.17;1.85;;;21.90;36.60;;;;;;5033546;28;20393;-59
2020/12/10 04:54:34;;;;;;;8.55;2.35;;;21.90;35.60;;;;;;5033776;28;20550;-58
2020/12/10 04:57:02;;;;;;;9.73;2.20;;;21.80;35.60;;;;;;5033347;28;20879;-59
2020/12/10 04:59:28;;;;;;;5.72;2.10;;;21.70;35.60;;;;;;5033735;28;20391;-59
2020/12/10 05:01:56;;;;;;;4.87;2.00;;;21.70;35.50;;;;;;5033699;28;20390;-59
2020/12/10 05:04:23;;;;;;;6.32;2.50;;;21.70;35.50;;;;;;5033581;28;20883;-59
2020/12/10 05:06:50;;;;;;;7.45;2.45;;;21.70;35.50;;;;;;5033131;28;20445;-59
2020/12/10 05:09:17;;;;;;;7.13;2.40;;;21.60;35.20;;;;;;5033882;28;20516;-59
2020/12/10 05:11:43;;;;;;;5.07;2.08;;;21.70;35.10;;;;;;5033347;28;20406;-58
2020/12/10 05:14:08;;;;;;;5.40;2.35;;;21.60;35.40;;;;;;5032660;28;20426;-59
2020/12/10 05:16:34;;;;;;;4.57;1.90;;;21.60;35.30;;;;;;5032945;28;20383;-59
2020/12/10 05:19:20;;;;;;;5.07;2.00;;;21.60;35.30;;;;;;5032631;28;20411;-59
2020/12/10 05:22:03;;;;;;;5.72;2.00;;;21.60;35.60;;;;;;5028480;28;20530;-60
2020/12/10 05:24:30;;;;;;;4.10;1.90;;;21.60;34.90;;;;;;5031996;28;20395;-59
2020/12/10 05:27:18;;;;;;;2.80;1.80;;;21.60;34.70;;;;;;5032114;28;20458;-59
2020/12/10 05:29:45;;;;;;;4.35;1.80;;;21.60;34.60;;;;;;5018549;28;20398;-59
2020/12/10 05:32:37;;;;;;;3.25;1.80;;;21.60;34.50;;;;;;5014783;28;20898;-59
2020/12/10 05:35:12;;;;;;;3.92;2.10;;;21.60;34.40;;;;;;5030968;28;20468;-59
2020/12/10 05:37:37;;;;;;;4.68;1.90;;;21.60;34.40;;;;;;5030382;28;20383;-59
2020/12/10 05:40:03;;;;;;;2.90;1.90;;;21.60;34.30;;;;;;5012208;28;20571;-59
2020/12/10 05:42:39;;;;;;;3.00;1.60;;;21.60;34.20;;;;;;5031582;28;20732;-59
2020/12/10 05:45:16;;;;;;;2.88;1.80;;;21.60;34.20;;;;;;5032285;28;20802;-59
2020/12/10 05:47:54;;;;;;;3.38;1.77;;;21.60;34.10;;;;;;5032954;28;20395;-59
2020/12/10 05:50:25;;;;;;;2.30;1.60;;;21.60;34.10;;;;;;5032668;28;20487;-59
2020/12/10 05:52:59;;;;;;;6.28;2.13;;;21.50;34.00;;;;;;5028229;28;20763;-59
2020/12/10 05:55:26;;;;;;;3.45;1.90;;;21.50;34.20;;;;;;5028039;28;20746;-59
2020/12/10 05:57:54;;;;;;;8.80;2.47;;;21.50;34.20;;;;;;5032711;28;20414;-59
2020/12/10 06:00:20;;;;;;;9.18;2.30;;;21.60;34.20;;;;;;5014559;28;20478;-59
2020/12/10 06:02:46;;;;;;;9.27;2.30;;;21.50;34.30;;;;;;5032192;28;20483;-59
2020/12/10 06:05:14;;;;;;;8.90;2.50;;;21.50;34.70;;;;;;5030379;28;20553;-59
2020/12/10 06:07:56;;;;;;;9.20;2.22;;;21.40;34.80;;;;;;5030535;28;20474;-59
2020/12/10 06:10:21;;;;;;;9.82;2.30;;;21.40;34.80;;;;;;5030327;28;20482;-59
2020/12/10 06:12:50;;;;;;;5.63;1.90;;;21.40;34.70;;;;;;5029665;28;20515;-59
2020/12/10 06:15:22;;;;;;;6.50;2.00;;;21.40;34.70;;;;;;5030058;28;20407;-59
2020/12/10 06:18:15;;;;;;;7.13;2.10;;;21.40;34.60;;;;;;5030305;28;20437;-59
2020/12/10 06:20:44;;;;;;;8.50;2.13;;;21.50;34.70;;;;;;5026819;28;20739;-59
2020/12/10 06:23:31;;;;;;;6.03;2.00;;;21.40;34.50;;;;;;5031783;28;20478;-59
2020/12/10 06:26:00;;;;;;;6.65;2.30;;;21.40;34.50;;;;;;5031802;28;20868;-59
2020/12/10 06:28:26;;;;;;;4.95;1.77;;;21.40;34.50;;;;;;5031132;28;20466;-59
2020/12/10 06:31:05;;;;;;;6.15;2.10;;;21.40;34.50;;;;;;5031130;28;20409;-59
2020/12/10 06:33:41;;;;;;;4.95;2.03;;;21.40;34.40;;;;;;5032002;28;20533;-59
2020/12/10 06:36:27;;;;;;;5.32;1.80;;;21.40;34.40;;;;;;5031895;28;20390;-59
2020/12/10 06:38:55;;;;;;;3.13;1.70;;;21.40;34.30;;;;;;5031470;28;20383;-59
2020/12/10 06:41:22;;;;;;;3.42;1.75;;;21.40;34.30;;;;;;5031959;28;20863;-59
2020/12/10 06:43:47;;;;;;;2.40;1.73;;;21.30;34.20;;;;;;5031680;28;20398;-59
2020/12/10 06:46:13;;;;;;;3.63;1.80;;;21.30;34.20;;;;;;5031764;28;20387;-59
2020/12/10 06:48:40;;;;;;;3.70;1.70;;;21.30;34.20;;;;;;5031765;28;20421;-59
2020/12/10 06:51:12;;;;;;;4.70;1.70;;;21.30;34.20;;;;;;5031375;28;20425;-59
2020/12/10 06:53:38;;;;;;;3.85;1.70;;;21.30;34.10;;;;;;5031493;28;20458;-59
2020/12/10 06:56:16;;;;;;;3.40;1.67;;;21.30;34.10;;;;;;5029849;28;20426;-59
2020/12/10 06:58:42;;;;;;;3.00;1.70;;;21.30;34.10;;;;;;5030422;28;20395;-59
2020/12/10 07:01:26;;;;;;;3.13;1.70;;;21.30;34.00;;;;;;5030058;28;20890;-59
2020/12/10 07:04:32;;;;;;;2.70;1.70;;;21.30;34.00;;;;;;5031444;28;20391;-59
2020/12/10 07:07:15;;;;;;;2.38;1.65;;;21.30;34.00;;;;;;5031214;28;20379;-59
2020/12/10 07:09:49;;;;;;;2.15;1.60;;;21.30;33.90;;;;;;5031530;28;20395;-59
2020/12/10 07:12:19;;;;;;;2.17;1.63;;;21.30;33.90;;;;;;5031446;28;20754;-59
2020/12/10 07:14:45;;;;;;;2.75;1.70;;;21.30;33.90;;;;;;5031358;28;20411;-59
2020/12/10 07:17:10;;;;;;;2.70;1.75;;;21.30;33.80;;;;;;5013226;28;20398;-59
2020/12/10 07:19:36;;;;;;;2.20;1.77;;;21.30;33.70;;;;;;5030639;28;20375;-59
2020/12/10 07:22:02;;;;;;;2.00;1.77;;;21.30;33.70;;;;;;5031486;28;20444;-60
2020/12/10 07:24:27;;;;;;;2.20;1.60;;;21.30;33.70;;;;;;5032140;28;20388;-60
2020/12/10 07:26:53;;;;;;;2.90;1.65;;;21.30;33.80;;;;;;5035263;28;20403;-59
2020/12/10 07:29:19;;;;;;;2.40;1.80;;;21.30;33.70;;;;;;5035440;28;20387;-59
2020/12/10 07:31:44;;;;;;;2.00;1.60;;;21.30;33.60;;;;;;5035423;28;20390;-59
2020/12/10 07:34:13;;;;;;;3.05;1.52;;;21.20;33.60;;;;;;5035329;28;20906;-59
2020/12/10 07:36:50;;;;;;;1.83;1.60;;;21.30;33.60;;;;;;5035244;28;20895;-59
2020/12/10 07:39:32;;;;;;;1.80;1.60;;;21.20;33.60;;;;;;5034807;28;20960;-59
2020/12/10 07:41:58;;;;;;;2.10;1.60;;;21.20;33.60;;;;;;5034588;28;20434;-59
2020/12/10 07:44:31;;;;;;;2.17;1.70;;;21.20;33.60;;;;;;5035136;28;20395;-58
2020/12/10 07:46:58;;;;;;;1.90;1.50;;;21.20;33.50;;;;;;5035102;28;20443;-59
2020/12/10 07:49:31;;;;;;;2.90;1.80;;;21.20;33.50;;;;;;5017714;28;20814;-59
2020/12/10 07:52:05;;;;;;;2.55;1.55;;;21.20;33.50;;;;;;5035062;28;20383;-59
2020/12/10 07:54:50;;;;;;;2.15;1.80;;;21.20;33.50;;;;;;5035054;28;20427;-59
2020/12/10 07:57:31;;;;;;;2.40;1.88;;;21.20;33.40;;;;;;5034554;28;20387;-59
2020/12/10 08:00:04;;;;;;;2.15;1.63;;;21.20;33.40;;;;;;5034942;28;20381;-59
2020/12/10 08:02:55;;;;;;;2.15;1.70;;;21.20;33.40;;;;;;5034877;28;20419;-59
2020/12/10 08:05:21;;;;;;;2.10;1.80;;;21.20;33.40;;;;;;5034714;28;20375;-59
2020/12/10 08:07:53;;;;;;;2.13;1.73;;;21.10;33.30;;;;;;5034844;28;20391;-59
2020/12/10 08:10:39;;;;;;;2.30;1.70;;;21.10;33.20;;;;;;5034732;28;20431;-59
2020/12/10 08:13:14;;;;;;;2.38;1.70;;;21.10;33.30;;;;;;5034267;28;20423;-59
2020/12/10 08:15:45;;;;;;;1.90;1.70;;;21.10;33.30;;;;;;5034667;28;20422;-59
2020/12/10 08:18:13;;;;;;;2.08;1.75;;;21.20;33.30;;;;;;5034107;28;20437;-59
2020/12/10 08:20:47;;;;;;;2.30;1.63;;;21.10;33.30;;;;;;5033656;28;20397;-59
2020/12/10 08:23:13;;;;;;;2.33;1.70;;;21.10;33.30;;;;;;5033623;28;20422;-59
2020/12/10 08:25:40;;;;;;;2.20;1.80;;;21.10;33.20;;;;;;5034103;28;20743;-59
2020/12/10 08:28:07;;;;;;;2.25;1.75;;;21.10;33.30;;;;;;5034197;28;20387;-59
2020/12/10 08:30:34;;;;;;;2.03;1.73;;;21.10;33.30;;;;;;5034160;28;20878;-59
2020/12/10 08:33:00;;;;;;;2.17;1.70;;;21.10;33.30;;;;;;5033980;28;20395;-59
2020/12/10 08:35:27;;;;;;;2.20;1.75;;;21.10;33.30;;;;;;5033686;28;20404;-59
2020/12/10 08:37:53;;;;;;;2.00;1.80;;;21.10;33.20;;;;;;5034159;28;20889;-59
2020/12/10 08:40:27;;;;;;;2.03;1.70;;;21.10;33.20;;;;;;5033798;28;20454;-59
2020/12/10 08:42:54;;;;;;;2.33;1.92;;;21.10;33.20;;;;;;5033715;28;20387;-59
2020/12/10 08:45:33;;;;;;;1.90;1.70;;;21.10;33.30;;;;;;5033661;28;20395;-59
2020/12/10 08:48:00;;;;;;;3.60;2.13;;;21.10;33.30;;;;;;5034082;28;20379;-59
2020/12/10 08:50:29;;;;;;;2.30;1.80;;;21.10;33.30;;;;;;5034018;28;20395;-59
2020/12/10 08:53:04;;;;;;;2.20;1.80;;;21.10;33.30;;;;;;5034067;28;20446;-59
2020/12/10 08:55:42;;;;;;;2.78;1.90;;;21.10;33.30;;;;;;5033948;28;20438;-59
2020/12/10 08:58:14;;;;;;;2.60;2.00;;;21.10;33.20;;;;;;5033995;28;20391;-58
2020/12/10 09:00:40;;;;;;;2.53;2.00;;;21.00;33.20;;;;;;5033804;28;20403;-58
2020/12/10 09:03:06;;;;;;;2.97;2.00;;;21.00;33.10;;;;;;5033367;28;20466;-58
2020/12/10 09:05:32;;;;;;;2.20;1.90;;;21.00;33.20;;;;;;5033711;28;20423;-58
2020/12/10 09:07:57;;;;;;;2.38;1.90;;;21.00;33.20;;;;;;5033740;28;20434;-58
2020/12/10 09:10:27;;;;;;;2.20;1.80;;;21.00;33.20;;;;;;5034106;28;21126;-58
2020/12/10 09:12:53;;;;;;;2.80;1.98;;;21.10;33.20;;;;;;5032305;28;20481;-58
2020/12/10 09:15:19;;;;;;;2.13;1.92;;;21.10;33.20;;;;;;5032844;28;20399;-58
2020/12/10 09:17:45;;;;;;;2.10;1.90;;;21.10;33.20;;;;;;5033163;28;20398;-58
2020/12/10 09:20:10;;;;;;;2.35;1.90;;;21.00;33.20;;;;;;5032626;28;20822;-58
2020/12/10 09:22:36;;;;;;;2.40;1.93;;;21.00;33.20;;;;;;5033423;28;20398;-58
2020/12/10 09:25:02;;;;;;;2.95;1.83;;;21.00;33.20;;;;;;5033280;28;20453;-58
2020/12/10 09:27:28;;;;;;;2.58;2.13;;;21.00;33.20;;;;;;5033340;28;20387;-58
2020/12/10 09:29:53;;;;;;;2.30;1.90;;;21.00;33.20;;;;;;5032899;28;20894;-58
2020/12/10 09:32:19;;;;;;;2.60;2.30;;;21.00;33.20;;;;;;5032684;28;20441;-58
2020/12/10 09:34:45;;;;;;;2.22;1.98;;;21.00;33.20;;;;;;5033082;28;20414;-58
2020/12/10 09:37:10;;;;;;;2.22;1.98;;;21.00;33.20;;;;;;5032759;28;20786;-58
2020/12/10 09:39:36;;;;;;;2.40;2.10;;;21.00;33.20;;;;;;5033140;28;20727;-58
2020/12/10 09:42:03;;;;;;;3.03;2.07;;;21.00;33.10;;;;;;5033056;28;20461;-58
2020/12/10 09:44:29;;;;;;;3.20;2.22;;;20.90;33.10;;;;;;5032823;28;20461;-58
2020/12/10 09:46:55;;;;;;;2.45;2.03;;;21.00;33.20;;;;;;5032082;28;20387;-58
2020/12/10 09:49:21;;;;;;;2.85;2.22;;;21.00;33.20;;;;;;5014466;28;20434;-58
2020/12/10 09:51:49;;;;;;;3.13;2.33;;;20.90;33.10;;;;;;5032855;28;20394;-58
2020/12/10 09:59:30;;;;;;;2.63;2.40;;;20.90;33.10;;;;;;5032506;28;20394;-58
2020/12/10 10:01:56;;;;;;;2.50;2.10;;;21.00;33.20;;;;;;5014862;28;20470;-58
2020/12/10 10:04:22;;;;;;;3.10;1.90;;;20.90;33.10;;;;;;5032751;28;20487;-58
2020/12/10 10:06:48;;;;;;;2.77;2.10;;;21.00;33.20;;;;;;5032581;28;20405;-58
2020/12/10 10:09:14;;;;;;;3.45;2.38;;;21.00;33.20;;;;;;5032271;28;20457;-58
2020/12/10 10:11:40;;;;;;;4.40;2.50;;;20.90;33.10;;;;;;5032323;28;20453;-58
2020/12/10 10:14:06;;;;;;;2.22;2.03;;;21.00;33.20;;;;;;5032434;28;20776;-58
2020/12/10 10:16:32;;;;;;;2.80;2.23;;;20.90;33.10;;;;;;5032374;28;20932;-58
2020/12/10 10:18:59;;;;;;;2.65;2.38;;;20.90;33.10;;;;;;5032400;28;20758;-58
2020/12/10 10:21:27;;;;;;;2.58;2.38;;;21.00;33.20;;;;;;5030899;28;21026;-58
2020/12/10 10:23:57;;;;;;;2.67;2.38;;;21.00;33.20;;;;;;5031933;28;20421;-58
2020/12/10 10:26:23;;;;;;;2.90;2.30;;;20.90;33.10;;;;;;5030563;28;20386;-58
2020/12/10 10:28:50;;;;;;;2.70;2.30;;;20.90;33.10;;;;;;5031512;28;20387;-58
2020/12/10 10:31:15;;;;;;;3.22;2.30;;;21.00;33.10;;;;;;5013902;28;20503;-58
2020/12/10 10:33:41;;;;;;;3.05;2.30;;;20.90;33.10;;;;;;5031943;28;20514;-58
2020/12/10 10:36:09;;;;;;;2.65;2.22;;;20.90;33.20;;;;;;5031362;28;20707;-58
2020/12/10 10:38:36;;;;;;;2.63;2.20;;;20.90;33.10;;;;;;5031920;28;20728;-58
2020/12/10 10:41:02;;;;;;;3.10;2.50;;;20.90;33.10;;;;;;5031884;28;20881;-58
2020/12/10 10:43:27;;;;;;;2.63;2.33;;;20.90;33.00;;;;;;5031611;28;20460;-58
2020/12/10 10:45:53;;;;;;;2.80;2.30;;;20.90;33.10;;;;;;5031963;28;20883;-58
2020/12/10 10:48:19;;;;;;;3.22;2.60;;;20.90;33.10;;;;;;5031954;28;20413;-58
2020/12/10 10:50:44;;;;;;;2.70;2.20;;;20.90;33.70;;;;;;5031853;28;20913;-58
2020/12/10 10:53:10;;;;;;;2.60;2.30;;;20.90;33.00;;;;;;5031181;28;20441;-58
2020/12/10 10:55:36;;;;;;;2.80;2.40;;;20.90;33.10;;;;;;5031862;28;20392;-58
2020/12/10 10:58:01;;;;;;;2.55;2.30;;;20.90;33.10;;;;;;5031706;28;20755;-58
2020/12/10 11:00:27;;;;;;;2.60;2.30;;;20.90;33.00;;;;;;5031538;28;20431;-58
2020/12/10 11:02:53;;;;;;;2.80;2.50;;;20.90;33.10;;;;;;5031688;28;20798;-57
2020/12/10 11:05:19;;;;;;;2.47;2.28;;;20.90;33.10;;;;;;5031261;28;20413;-58
2020/12/10 11:07:44;;;;;;;3.30;2.20;;;20.90;33.10;;;;;;5031497;28;20387;-58
2020/12/10 11:10:11;;;;;;;3.30;2.50;;;20.90;33.10;;;;;;5031668;28;20449;-58
2020/12/10 11:12:37;;;;;;;2.60;2.22;;;20.90;33.00;;;;;;5031337;28;20905;-58
2020/12/10 11:15:03;;;;;;;2.90;2.40;;;20.90;33.10;;;;;;5031507;28;20415;-58
2020/12/10 11:17:29;;;;;;;2.50;2.20;;;20.90;33.10;;;;;;5031198;28;21008;-58
2020/12/10 11:19:54;;;;;;;2.67;2.38;;;20.90;33.10;;;;;;5030390;28;20423;-58
2020/12/10 11:22:20;;;;;;;2.43;2.20;;;20.90;33.10;;;;;;5029149;28;20470;-58
2020/12/10 11:24:46;;;;;;;2.50;2.30;;;20.90;33.10;;;;;;5030791;28;20474;-58
2020/12/10 11:27:11;;;;;;;2.80;2.40;;;20.90;33.10;;;;;;5031055;28;20456;-58
2020/12/10 11:29:37;;;;;;;2.60;2.30;;;20.90;33.10;;;;;;5031344;28;20394;-58
2020/12/10 11:32:04;;;;;;;2.50;2.30;;;20.90;33.10;;;;;;5031449;28;20405;-58
2020/12/10 11:34:30;;;;;;;2.65;2.33;;;20.90;33.00;;;;;;5031193;28;20422;-58
2020/12/10 11:36:56;;;;;;;2.42;2.20;;;20.90;33.10;;;;;;5031153;28;20391;-58
2020/12/10 11:39:22;;;;;;;2.55;2.22;;;20.90;33.00;;;;;;5030011;28;20388;-58
2020/12/10 11:41:48;;;;;;;2.38;2.13;;;20.90;33.10;;;;;;5031302;28;20807;-58
2020/12/10 11:44:14;;;;;;;2.47;2.23;;;20.80;33.00;;;;;;5031133;28;20395;-58
2020/12/10 11:46:39;;;;;;;2.70;2.30;;;20.80;33.00;;;;;;5031322;28;20877;-58
2020/12/10 11:49:05;;;;;;;2.50;2.25;;;20.80;33.00;;;;;;5030347;28;20395;-58
2020/12/10 11:51:32;;;;;;;2.43;2.23;;;20.80;33.00;;;;;;5030754;28;20902;-58
2020/12/10 11:53:59;;;;;;;2.90;2.40;;;20.80;33.00;;;;;;5029769;28;20424;-58
2020/12/10 11:56:26;;;;;;;2.65;2.25;;;20.80;33.00;;;;;;5031165;28;20391;-58
2020/12/10 11:58:51;;;;;;;2.38;2.10;;;20.80;33.00;;;;;;5030866;28;20759;-58
2020/12/10 12:01:17;;;;;;;2.50;2.30;;;20.80;33.00;;;;;;5030735;28;20383;-58
2020/12/10 12:03:43;;;;;;;2.80;2.40;;;20.80;33.00;;;;;;5031034;28;21111;-58
2020/12/10 12:06:08;;;;;;;2.60;2.40;;;20.80;33.00;;;;;;5031052;28;20399;-58
2020/12/10 12:08:35;;;;;;;2.25;2.05;;;20.80;33.00;;;;;;5030990;28;20763;-58
2020/12/10 12:11:02;;;;;;;2.47;2.20;;;20.80;33.00;;;;;;5032400;28;20407;-58
2020/12/10 12:13:30;;;;;;;2.55;2.30;;;20.80;33.10;;;;;;5034298;28;20418;-58
2020/12/10 12:15:56;;;;;;;2.40;2.20;;;20.80;33.00;;;;;;5034797;28;20395;-58
2020/12/10 12:18:24;;;;;;;2.73;2.23;;;20.70;33.00;;;;;;5034713;28;20399;-58
2020/12/10 12:20:50;;;;;;;2.50;2.30;;;20.80;33.00;;;;;;5034671;28;20395;-58
2020/12/10 12:23:15;;;;;;;2.40;2.20;;;20.80;33.00;;;;;;5034016;28;20387;-58
2020/12/10 12:25:41;;;;;;;2.42;2.22;;;20.80;33.00;;;;;;5034465;28;20398;-58
2020/12/10 12:28:07;;;;;;;2.63;2.40;;;20.80;33.10;;;;;;5034580;28;20384;-58
2020/12/10 12:30:33;;;;;;;2.40;2.20;;;20.70;33.00;;;;;;5034405;28;20453;-58
2020/12/10 12:32:59;;;;;;;2.28;2.08;;;20.70;33.00;;;;;;5034364;28;20869;-58
2020/12/10 12:35:24;;;;;;;2.83;2.40;;;20.70;33.00;;;;;;5033880;28;20975;-58
2020/12/10 12:37:50;;;;;;;2.40;2.20;;;20.70;33.00;;;;;;5034303;28;20475;-58
2020/12/10 12:40:17;;;;;;;2.40;2.20;;;20.70;33.00;;;;;;5034238;28;20890;-58
2020/12/10 12:42:43;;;;;;;2.40;2.10;;;20.80;33.00;;;;;;5032955;28;20482;-58
2020/12/10 12:45:09;;;;;;;2.35;2.15;;;20.70;33.00;;;;;;5034191;28;20446;-58
2020/12/10 12:47:35;;;;;;;2.40;2.17;;;20.70;33.00;;;;;;5033898;28;20870;-58
2020/12/10 12:50:02;;;;;;;2.40;2.20;;;20.70;33.00;;;;;;5033841;28;20402;-58
2020/12/10 12:52:28;;;;;;;2.50;2.20;;;20.70;33.00;;;;;;5033233;28;20395;-58
2020/12/10 12:54:54;;;;;;;2.50;2.30;;;20.70;33.00;;;;;;5033443;28;20415;-58
2020/12/10 12:57:20;;;;;;;2.50;2.20;;;20.70;32.90;;;;;;5033395;28;20867;-58
2020/12/10 12:59:46;;;;;;;2.60;2.40;;;20.70;33.00;;;;;;5033936;28;20399;-58
2020/12/10 13:02:13;;;;;;;2.50;2.30;;;20.70;32.90;;;;;;5033925;28;20482;-58
2020/12/10 13:04:39;;;;;;;2.70;2.50;;;20.70;33.00;;;;;;5032840;28;20747;-58